TW-0004 weather

Zuoying Naval Airfield
Kaohsiung City, Kaohsiung (municipality), Taiwan

Public forecast

Using degrees Celsius for public forecast. Weather courtesy of forecast.io.

METAR (pilot weather report)

Report is more than 6 hours old.

Closest report is Gangshan Air Force Base, 4.8 nm (8.8 km) NNW. Retrieved 2009/11/05 20:34 UTC (10 years ago):

RCAY 052034Z 03002KT 4000 BR FEW012 SCT100 23/19 Q1014/A2996/ NOSIG

TAF (pilot weather forecast)

Closest forecast is Kaohsiung International Airport, 8.6 nm (15.9 km) SSE. Retrieved 2019/08/18 18:00 UTC (3 hours ago):

TAF RCKH 181700Z 1818/1924 25012KT 8000 FEW016 BKN032 TEMPO 1818/1824 05005KT 5000 SHRA FEW010 BKN020 TEMPO 1902/1908 06005KT 3500 SHRA FEW007 FEW010CB BKN017 BECMG 1908/1910 13005KT TEMPO 1913/1919 07005KT 5000 RA FEW010 BKN020